Time;durP1;ratioP1;P1;durP2;ratioP2;P2;SDS_P1;SDS_P2;PMS_P1;PMS_P2;Temp;Humidity;BMP_temperature;BMP_pressure;BME280_temperature;BME280_humidity;BME280_pressure;Samples;Min_cycle;Max_cycle;Signal;HPM_P1;HPM_P2
2023/05/31 00:00:09;;;;;;;6.95;2.30;;;;;;;;;;7368895;19;20036;-70
2023/05/31 00:02:34;;;;;;;10.90;2.50;;;;;;;;;;7390642;19;20026;-69
2023/05/31 00:05:00;;;;;;;9.07;2.38;;;;;;;;;;7367918;19;20006;-69
2023/05/31 00:07:25;;;;;;;13.85;2.75;;;;;;;;;;7366397;19;20010;-69
2023/05/31 00:09:51;;;;;;;8.30;2.47;;;;;;;;;;7367369;19;20003;-69
2023/05/31 00:12:16;;;;;;;7.45;2.47;;;;;;;;;;7367868;19;20026;-69
2023/05/31 00:14:41;;;;;;;5.97;2.40;;;;;;;;;;7374482;19;20015;-69
2023/05/31 00:17:07;;;;;;;8.30;2.25;;;;;;;;;;7384905;19;20355;-69
2023/05/31 00:19:32;;;;;;;7.60;2.67;;;;;;;;;;7366756;19;20658;-69
2023/05/31 00:21:57;;;;;;;9.07;2.78;;;;;;;;;;7368121;19;20014;-69
2023/05/31 00:24:23;;;;;;;8.50;2.65;;;;;;;;;;7367144;19;20018;-68
2023/05/31 00:26:48;;;;;;;7.95;2.20;;;;;;;;;;7367137;19;20006;-68
2023/05/31 00:29:13;;;;;;;8.63;2.72;;;;;;;;;;7387995;19;20076;-68
2023/05/31 00:31:41;;;;;;;7.95;2.28;;;;;;;;;;7366034;19;20014;-68
2023/05/31 00:34:06;;;;;;;9.25;2.60;;;;;;;;;;7367817;19;20020;-68
2023/05/31 00:36:32;;;;;;;8.52;2.50;;;;;;;;;;7365764;19;20516;-68
2023/05/31 00:38:58;;;;;;;7.03;2.55;;;;;;;;;;7366414;19;20006;-68
2023/05/31 00:41:23;;;;;;;9.25;2.40;;;;;;;;;;7388706;19;20066;-69
2023/05/31 00:43:48;;;;;;;7.72;2.20;;;;;;;;;;7366330;19;20011;-69
2023/05/31 00:46:40;;;;;;;7.50;2.75;;;;;;;;;;7366150;19;20014;-69
2023/05/31 00:49:06;;;;;;;7.72;2.65;;;;;;;;;;7365135;19;20043;-70
2023/05/31 00:51:31;;;;;;;8.38;2.38;;;;;;;;;;7365141;19;20484;-69
2023/05/31 00:53:58;;;;;;;13.23;2.60;;;;;;;;;;7366926;19;20002;-69
2023/05/31 00:56:23;;;;;;;11.65;2.40;;;;;;;;;;7387732;19;20489;-69
2023/05/31 00:58:52;;;;;;;10.80;3.03;;;;;;;;;;7364471;19;20041;-69
2023/05/31 01:01:18;;;;;;;6.07;2.50;;;;;;;;;;7366029;19;20768;-70
2023/05/31 01:03:43;;;;;;;7.45;2.28;;;;;;;;;;7366891;19;20097;-70
2023/05/31 01:06:10;;;;;;;11.05;2.40;;;;;;;;;;7365446;19;20011;-70
2023/05/31 01:08:36;;;;;;;7.68;2.20;;;;;;;;;;7392457;19;20302;-70
2023/05/31 01:11:34;;;;;;;7.35;2.92;;;;;;;;;;7372359;19;20407;-69
2023/05/31 01:14:13;;;;;;;8.30;2.33;;;;;;;;;;7371257;19;20007;-69
2023/05/31 01:16:47;;;;;;;8.95;2.67;;;;;;;;;;7372665;19;20019;-70
2023/05/31 01:19:26;;;;;;;6.65;2.35;;;;;;;;;;7372892;19;20361;-69
2023/05/31 01:22:01;;;;;;;7.47;2.25;;;;;;;;;;7374023;19;20002;-69
2023/05/31 01:24:45;;;;;;;9.88;2.53;;;;;;;;;;7372747;19;20023;-70
2023/05/31 01:27:12;;;;;;;9.52;2.72;;;;;;;;;;7372801;19;20010;-70
2023/05/31 01:29:39;;;;;;;7.85;2.35;;;;;;;;;;7393958;19;20009;-69
2023/05/31 01:32:05;;;;;;;8.00;2.55;;;;;;;;;;7370501;19;20330;-69
2023/05/31 01:34:31;;;;;;;12.55;2.58;;;;;;;;;;7371631;19;20491;-70
2023/05/31 01:36:56;;;;;;;7.95;2.72;;;;;;;;;;7372400;19;20090;-69
2023/05/31 01:39:21;;;;;;;7.53;2.78;;;;;;;;;;7370974;19;20473;-69
2023/05/31 01:41:49;;;;;;;9.50;2.60;;;;;;;;;;7372260;19;20007;-69
2023/05/31 01:44:15;;;;;;;6.72;2.42;;;;;;;;;;7393815;19;19994;-70
2023/05/31 01:46:42;;;;;;;7.57;2.60;;;;;;;;;;7369744;19;20441;-70
2023/05/31 01:49:08;;;;;;;10.70;2.75;;;;;;;;;;7371446;19;20942;-70
2023/05/31 01:51:36;;;;;;;7.22;2.45;;;;;;;;;;7370877;19;20006;-70
2023/05/31 01:54:02;;;;;;;8.63;2.55;;;;;;;;;;7372389;19;20067;-69
2023/05/31 01:56:30;;;;;;;10.57;2.70;;;;;;;;;;7393273;19;20010;-69
2023/05/31 01:58:57;;;;;;;8.85;3.00;;;;;;;;;;7370846;19;20014;-69
2023/05/31 02:01:23;;;;;;;9.00;2.50;;;;;;;;;;7371508;19;20008;-69
2023/05/31 02:03:51;;;;;;;11.48;2.53;;;;;;;;;;7372629;19;20010;-68
2023/05/31 02:06:17;;;;;;;7.78;2.55;;;;;;;;;;7372105;19;20006;-69
2023/05/31 02:08:42;;;;;;;9.32;2.83;;;;;;;;;;7370132;19;20009;-69
2023/05/31 02:11:08;;;;;;;7.38;2.50;;;;;;;;;;7392024;19;20557;-69
2023/05/31 02:13:34;;;;;;;9.70;2.67;;;;;;;;;;7371747;19;20014;-69
2023/05/31 02:15:59;;;;;;;8.70;2.78;;;;;;;;;;7370847;19;20006;-69
2023/05/31 02:18:28;;;;;;;12.25;2.92;;;;;;;;;;7368587;19;20006;-69
2023/05/31 02:20:54;;;;;;;7.30;2.60;;;;;;;;;;7373973;19;20126;-69
2023/05/31 02:23:20;;;;;;;9.02;2.40;;;;;;;;;;7395774;19;20006;-69
2023/05/31 02:25:49;;;;;;;10.35;2.90;;;;;;;;;;7382438;19;20563;-69
2023/05/31 02:28:15;;;;;;;9.20;2.60;;;;;;;;;;7377792;19;20006;-69
2023/05/31 02:30:41;;;;;;;9.32;2.70;;;;;;;;;;7373446;19;20045;-69
2023/05/31 02:33:07;;;;;;;9.65;2.88;;;;;;;;;;7372622;19;20022;-70
2023/05/31 02:35:33;;;;;;;9.73;2.40;;;;;;;;;;7396674;19;20002;-70
2023/05/31 02:37:58;;;;;;;9.55;2.58;;;;;;;;;;7373017;19;20015;-68
2023/05/31 02:40:24;;;;;;;8.35;2.40;;;;;;;;;;7375436;19;20031;-69
2023/05/31 02:42:49;;;;;;;10.13;3.00;;;;;;;;;;7374070;19;20018;-69
2023/05/31 02:45:14;;;;;;;7.03;2.80;;;;;;;;;;7371388;19;20655;-70
2023/05/31 02:47:40;;;;;;;10.38;2.70;;;;;;;;;;7391159;19;20011;-69
2023/05/31 02:50:07;;;;;;;12.07;3.15;;;;;;;;;;7369719;19;20078;-69
2023/05/31 02:52:33;;;;;;;11.93;3.08;;;;;;;;;;7370194;19;20362;-69
2023/05/31 02:54:58;;;;;;;6.07;2.40;;;;;;;;;;7370193;19;20031;-68
2023/05/31 02:57:24;;;;;;;8.23;2.80;;;;;;;;;;7369485;19;20014;-69
2023/05/31 02:59:54;;;;;;;9.00;2.28;;;;;;;;;;7368018;19;20013;-69
2023/05/31 03:02:19;;;;;;;9.00;3.17;;;;;;;;;;7392466;19;20066;-69
2023/05/31 03:04:45;;;;;;;8.10;2.83;;;;;;;;;;7370334;19;20095;-69
2023/05/31 03:07:10;;;;;;;9.18;2.28;;;;;;;;;;7369835;19;20027;-69
2023/05/31 03:09:36;;;;;;;7.35;2.65;;;;;;;;;;7368186;19;20011;-68
2023/05/31 03:12:02;;;;;;;6.75;2.45;;;;;;;;;;7368382;19;19996;-69
2023/05/31 03:14:27;;;;;;;7.57;3.00;;;;;;;;;;7391965;19;20420;-69
2023/05/31 03:16:53;;;;;;;8.07;2.45;;;;;;;;;;7368100;19;20010;-69
2023/05/31 03:19:18;;;;;;;8.15;2.92;;;;;;;;;;7365614;19;20036;-70
2023/05/31 03:21:44;;;;;;;5.90;2.22;;;;;;;;;;7367005;19;20006;-69
2023/05/31 03:24:09;;;;;;;12.18;2.60;;;;;;;;;;7365445;19;20014;-70
2023/05/31 03:26:35;;;;;;;7.88;2.70;;;;;;;;;;7386322;19;20020;-70
2023/05/31 03:29:01;;;;;;;7.63;2.47;;;;;;;;;;7363419;19;20387;-69
2023/05/31 03:31:28;;;;;;;7.32;3.00;;;;;;;;;;7365786;19;20010;-69
2023/05/31 03:33:54;;;;;;;8.75;3.00;;;;;;;;;;7368842;19;20074;-69
2023/05/31 03:36:19;;;;;;;5.80;2.78;;;;;;;;;;7366606;19;20099;-69
2023/05/31 03:38:45;;;;;;;9.75;3.03;;;;;;;;;;7368542;19;20007;-69
2023/05/31 03:41:10;;;;;;;6.97;2.80;;;;;;;;;;7391666;19;19998;-69
2023/05/31 03:43:36;;;;;;;9.10;3.03;;;;;;;;;;7367734;19;20011;-69
2023/05/31 03:46:01;;;;;;;10.52;3.28;;;;;;;;;;7368877;19;20048;-70
2023/05/31 03:48:27;;;;;;;6.65;2.58;;;;;;;;;;7367457;19;20018;-70
2023/05/31 03:50:53;;;;;;;6.85;2.47;;;;;;;;;;7368311;19;20006;-69
2023/05/31 03:53:18;;;;;;;7.25;2.67;;;;;;;;;;7390694;19;20028;-70
2023/05/31 03:55:43;;;;;;;6.55;2.60;;;;;;;;;;7368453;19;20016;-68
2023/05/31 03:58:10;;;;;;;6.40;2.58;;;;;;;;;;7368563;19;20002;-69
2023/05/31 04:00:36;;;;;;;7.25;2.90;;;;;;;;;;7367433;19;20531;-70
2023/05/31 04:03:01;;;;;;;9.55;2.80;;;;;;;;;;7373771;19;20011;-68
2023/05/31 04:05:26;;;;;;;9.52;3.33;;;;;;;;;;7399215;19;19995;-69
2023/05/31 04:07:52;;;;;;;7.60;2.90;;;;;;;;;;7376551;19;20039;-69
2023/05/31 04:10:17;;;;;;;10.25;2.97;;;;;;;;;;7377636;19;20026;-69
2023/05/31 04:12:42;;;;;;;7.72;2.63;;;;;;;;;;7378891;19;20014;-69
2023/05/31 04:15:08;;;;;;;9.05;2.55;;;;;;;;;;7379552;19;20037;-69
2023/05/31 04:17:33;;;;;;;8.30;2.70;;;;;;;;;;7399611;19;20453;-69
2023/05/31 04:19:59;;;;;;;5.53;2.38;;;;;;;;;;7372678;19;20380;-69
2023/05/31 04:22:24;;;;;;;10.82;3.08;;;;;;;;;;7373300;19;20056;-69
2023/05/31 04:24:50;;;;;;;8.05;2.83;;;;;;;;;;7372426;19;20014;-69
2023/05/31 04:27:18;;;;;;;8.95;2.90;;;;;;;;;;7367889;19;20009;-69
2023/05/31 04:29:45;;;;;;;7.85;2.65;;;;;;;;;;7369668;19;20376;-69
2023/05/31 04:32:14;;;;;;;9.70;2.78;;;;;;;;;;7386114;19;20452;-70
2023/05/31 04:34:40;;;;;;;6.43;2.83;;;;;;;;;;7367919;19;19999;-70
2023/05/31 04:37:06;;;;;;;7.50;2.75;;;;;;;;;;7367327;19;20035;-69
2023/05/31 04:39:32;;;;;;;9.45;2.78;;;;;;;;;;7367377;19;20353;-70
2023/05/31 04:41:59;;;;;;;8.23;2.80;;;;;;;;;;7368846;19;20019;-69
2023/05/31 04:44:24;;;;;;;5.97;2.28;;;;;;;;;;7396733;19;19994;-69
2023/05/31 04:46:50;;;;;;;9.15;3.20;;;;;;;;;;7373952;19;20017;-69
2023/05/31 04:49:16;;;;;;;9.82;2.80;;;;;;;;;;7373775;19;20033;-70
2023/05/31 04:51:41;;;;;;;10.43;3.03;;;;;;;;;;7366993;19;20034;-71
2023/05/31 04:54:06;;;;;;;6.82;2.60;;;;;;;;;;7368519;19;20664;-65
2023/05/31 04:56:32;;;;;;;6.88;2.63;;;;;;;;;;7394585;19;20002;-64
2023/05/31 04:58:57;;;;;;;7.75;2.90;;;;;;;;;;7371503;19;20002;-65
2023/05/31 05:01:22;;;;;;;7.78;2.35;;;;;;;;;;7374689;19;20006;-65
2023/05/31 05:03:51;;;;;;;5.55;2.70;;;;;;;;;;7376720;19;20018;-67
2023/05/31 05:06:16;;;;;;;7.57;2.83;;;;;;;;;;7376638;19;20007;-67
2023/05/31 05:08:45;;;;;;;8.77;2.95;;;;;;;;;;7376448;19;20009;-68
2023/05/31 05:11:11;;;;;;;8.38;2.72;;;;;;;;;;7394713;19;20014;-67
2023/05/31 05:13:37;;;;;;;8.57;2.75;;;;;;;;;;7373117;19;20002;-68
2023/05/31 05:16:02;;;;;;;8.05;2.65;;;;;;;;;;7373579;19;20492;-68
2023/05/31 05:18:28;;;;;;;7.45;2.80;;;;;;;;;;7370150;19;20014;-67
2023/05/31 05:20:53;;;;;;;9.30;2.75;;;;;;;;;;7373529;19;20013;-67
2023/05/31 05:23:19;;;;;;;13.90;2.92;;;;;;;;;;7394623;19;20003;-67
2023/05/31 05:25:45;;;;;;;7.97;2.50;;;;;;;;;;7370008;19;20433;-67
2023/05/31 05:28:10;;;;;;;8.75;2.40;;;;;;;;;;7366563;19;20018;-67
2023/05/31 05:30:36;;;;;;;8.00;2.17;;;;;;;;;;7364600;19;20026;-67
2023/05/31 05:33:01;;;;;;;7.40;2.50;;;;;;;;;;7366104;19;20448;-68
2023/05/31 05:35:26;;;;;;;7.28;2.40;;;;;;;;;;7393027;19;20504;-68
2023/05/31 05:37:52;;;;;;;11.77;2.85;;;;;;;;;;7369759;19;20552;-67
2023/05/31 05:40:18;;;;;;;4.80;2.20;;;;;;;;;;7372771;19;20010;-67
2023/05/31 05:42:44;;;;;;;7.43;2.65;;;;;;;;;;7371731;19;20078;-68
2023/05/31 05:45:10;;;;;;;7.22;2.50;;;;;;;;;;7372830;19;20032;-68
2023/05/31 05:47:35;;;;;;;5.15;2.28;;;;;;;;;;7393566;19;20019;-67
2023/05/31 05:50:01;;;;;;;5.07;2.40;;;;;;;;;;7371893;19;20003;-67
2023/05/31 05:52:27;;;;;;;7.20;2.60;;;;;;;;;;7372467;19;20399;-66
2023/05/31 05:54:52;;;;;;;7.55;2.50;;;;;;;;;;7373304;19;20011;-67
2023/05/31 05:57:18;;;;;;;7.38;2.67;;;;;;;;;;7371962;19;20010;-67
2023/05/31 05:59:44;;;;;;;6.68;2.28;;;;;;;;;;7370843;19;20074;-67
2023/05/31 06:02:10;;;;;;;12.45;3.08;;;;;;;;;;7393739;19;20511;-67
2023/05/31 06:04:36;;;;;;;6.30;2.70;;;;;;;;;;7374193;19;20090;-67
2023/05/31 06:07:01;;;;;;;9.50;3.33;;;;;;;;;;7379143;19;20085;-67
2023/05/31 06:09:27;;;;;;;8.25;3.05;;;;;;;;;;7380160;19;20006;-67
2023/05/31 06:11:52;;;;;;;5.88;2.45;;;;;;;;;;7374976;19;20003;-67
2023/05/31 06:14:17;;;;;;;13.32;2.83;;;;;;;;;;7394995;19;20383;-67
2023/05/31 06:16:43;;;;;;;7.07;2.58;;;;;;;;;;7375942;19;20050;-66
2023/05/31 06:19:08;;;;;;;6.72;2.42;;;;;;;;;;7377081;19;20002;-67
2023/05/31 06:21:34;;;;;;;7.65;2.70;;;;;;;;;;7377224;19;20006;-67
2023/05/31 06:24:02;;;;;;;6.13;2.22;;;;;;;;;;7376825;19;20078;-67
2023/05/31 06:26:27;;;;;;;9.85;2.47;;;;;;;;;;7400211;19;20021;-67
2023/05/31 06:28:52;;;;;;;7.88;2.38;;;;;;;;;;7376471;19;20081;-67
2023/05/31 06:31:18;;;;;;;6.25;2.28;;;;;;;;;;7374939;19;20002;-67
2023/05/31 06:33:43;;;;;;;6.55;2.13;;;;;;;;;;7378625;19;20007;-67
2023/05/31 06:36:08;;;;;;;7.07;2.30;;;;;;;;;;7378902;19;20027;-68
2023/05/31 06:38:33;;;;;;;7.35;2.40;;;;;;;;;;7392567;19;20035;-66
2023/05/31 06:40:59;;;;;;;15.75;3.33;;;;;;;;;;7370450;19;20027;-65
2023/05/31 06:43:25;;;;;;;10.05;2.38;;;;;;;;;;7383042;19;20031;-75
2023/05/31 06:45:50;;;;;;;9.18;2.53;;;;;;;;;;7384524;19;20003;-74
2023/05/31 06:48:16;;;;;;;5.85;2.10;;;;;;;;;;7378053;19;20471;-73
2023/05/31 06:50:41;;;;;;;9.50;2.70;;;;;;;;;;7384392;19;20002;-74
2023/05/31 06:53:09;;;;;;;6.57;2.47;;;;;;;;;;7382410;19;20424;-71
2023/05/31 06:55:34;;;;;;;8.40;2.30;;;;;;;;;;7380677;19;20017;-73
2023/05/31 06:58:01;;;;;;;4.50;1.75;;;;;;;;;;7382680;19;20006;-72
2023/05/31 07:00:27;;;;;;;9.43;2.50;;;;;;;;;;7375610;19;20005;-72
2023/05/31 07:02:52;;;;;;;4.72;2.05;;;;;;;;;;7370702;19;20006;-74
2023/05/31 07:05:18;;;;;;;9.15;2.47;;;;;;;;;;7388692;19;20628;-77
2023/05/31 07:07:43;;;;;;;9.88;2.17;;;;;;;;;;7366756;19;20014;-75
2023/05/31 07:10:09;;;;;;;3.35;2.03;;;;;;;;;;7368092;19;20006;-75
2023/05/31 07:12:34;;;;;;;5.82;2.42;;;;;;;;;;7368102;19;20051;-74
2023/05/31 07:15:00;;;;;;;10.30;2.28;;;;;;;;;;7367951;19;20336;-73
2023/05/31 07:17:25;;;;;;;11.40;2.88;;;;;;;;;;7389531;19;20011;-74
2023/05/31 07:19:51;;;;;;;8.98;3.25;;;;;;;;;;7368523;19;20015;-74
2023/05/31 07:22:17;;;;;;;5.22;2.00;;;;;;;;;;7368709;19;20023;-72
2023/05/31 07:24:43;;;;;;;8.18;2.50;;;;;;;;;;7366616;19;20026;-72
2023/05/31 07:27:09;;;;;;;8.50;2.65;;;;;;;;;;7366764;19;20037;-72
2023/05/31 07:29:35;;;;;;;11.55;3.08;;;;;;;;;;7388369;19;20014;-67
2023/05/31 07:32:01;;;;;;;11.15;2.60;;;;;;;;;;7367172;19;20029;-68
2023/05/31 07:34:26;;;;;;;8.82;2.83;;;;;;;;;;7366646;19;20022;-68
2023/05/31 07:36:51;;;;;;;6.53;2.42;;;;;;;;;;7366300;19;20145;-68
2023/05/31 07:39:17;;;;;;;5.30;1.90;;;;;;;;;;7364916;19;20069;-67
2023/05/31 07:41:45;;;;;;;7.15;2.55;;;;;;;;;;7368430;19;20006;-69
2023/05/31 07:45:03;;;;;;;6.03;2.80;;;;;;;;;;7385476;19;20018;-63
2023/05/31 07:47:29;;;;;;;4.15;2.03;;;;;;;;;;7360394;19;20852;-64
2023/05/31 07:49:54;;;;;;;4.80;1.88;;;;;;;;;;7385125;19;20007;-65
2023/05/31 07:55:42;;;;;;;7.20;2.47;;;;;;;;;;7363787;19;20027;-64
2023/05/31 07:58:07;;;;;;;6.25;2.60;;;;;;;;;;7366683;19;19999;-63
2023/05/31 08:00:32;;;;;;;5.75;2.78;;;;;;;;;;7369507;19;20002;-64
2023/05/31 08:02:58;;;;;;;6.85;2.28;;;;;;;;;;7364390;19;20014;-65
2023/05/31 08:05:23;;;;;;;5.90;2.50;;;;;;;;;;7390709;19;20002;-64
2023/05/31 08:07:52;;;;;;;6.53;2.42;;;;;;;;;;7367121;19;20014;-64
2023/05/31 08:10:17;;;;;;;5.32;2.42;;;;;;;;;;7369322;19;20014;-65
2023/05/31 08:12:43;;;;;;;5.22;1.95;;;;;;;;;;7371069;19;20078;-65
2023/05/31 08:15:10;;;;;;;6.97;2.40;;;;;;;;;;7371391;19;20014;-64
2023/05/31 08:17:35;;;;;;;6.60;2.30;;;;;;;;;;7390333;19;20013;-64
2023/05/31 08:20:01;;;;;;;7.03;2.35;;;;;;;;;;7372831;19;20098;-63
2023/05/31 08:22:26;;;;;;;4.43;2.33;;;;;;;;;;7370868;19;20013;-63
2023/05/31 08:24:52;;;;;;;8.50;2.20;;;;;;;;;;7371757;19;20003;-64
2023/05/31 08:27:17;;;;;;;3.92;1.92;;;;;;;;;;7368039;19;20027;-64
2023/05/31 08:29:45;;;;;;;8.85;2.63;;;;;;;;;;7369071;19;20081;-64
2023/05/31 08:32:11;;;;;;;7.10;2.10;;;;;;;;;;7389524;19;20006;-63
2023/05/31 08:34:36;;;;;;;5.88;2.63;;;;;;;;;;7374726;19;20544;-64
2023/05/31 08:37:01;;;;;;;6.72;1.98;;;;;;;;;;7369727;19;20033;-64
2023/05/31 08:39:27;;;;;;;7.10;2.30;;;;;;;;;;7372932;19;20063;-65
2023/05/31 08:41:56;;;;;;;6.57;2.00;;;;;;;;;;7372411;19;20006;-63
2023/05/31 08:44:21;;;;;;;5.60;2.20;;;;;;;;;;7390426;19;20003;-63
2023/05/31 08:46:47;;;;;;;8.02;2.42;;;;;;;;;;7369053;19;20031;-67
2023/05/31 08:49:16;;;;;;;5.63;1.98;;;;;;;;;;7376127;19;20374;-72
2023/05/31 08:51:45;;;;;;;7.35;2.15;;;;;;;;;;7372783;19;20031;-71
2023/05/31 08:54:11;;;;;;;4.25;2.05;;;;;;;;;;7373929;19;20018;-67
2023/05/31 08:56:38;;;;;;;5.55;2.08;;;;;;;;;;7390383;19;20049;-71
2023/05/31 08:59:09;;;;;;;7.15;2.40;;;;;;;;;;7369979;19;20014;-69
2023/05/31 09:01:54;;;;;;;6.55;2.42;;;;;;;;;;7368130;19;20007;-69
2023/05/31 09:04:40;;;;;;;5.97;2.67;;;;;;;;;;7364014;19;20006;-67
2023/05/31 09:07:06;;;;;;;6.50;2.40;;;;;;;;;;7360997;19;20502;-70
2023/05/31 09:09:31;;;;;;;8.65;2.55;;;;;;;;;;7363456;19;20006;-68
2023/05/31 09:11:56;;;;;;;7.68;2.10;;;;;;;;;;7362353;19;20074;-72
2023/05/31 09:14:23;;;;;;;5.55;2.00;;;;;;;;;;7385275;19;19999;-72
2023/05/31 09:16:50;;;;;;;6.20;2.20;;;;;;;;;;7361405;19;20010;-71
2023/05/31 09:19:15;;;;;;;4.50;2.10;;;;;;;;;;7359598;19;20006;-70
2023/05/31 09:21:43;;;;;;;7.90;2.08;;;;;;;;;;7365042;19;20564;-71
2023/05/31 09:24:10;;;;;;;7.90;2.00;;;;;;;;;;7358740;19;20087;-69
2023/05/31 09:26:44;;;;;;;3.90;1.80;;;;;;;;;;7388622;19;20014;-73
2023/05/31 09:29:10;;;;;;;6.60;2.22;;;;;;;;;;7370608;19;20015;-71
2023/05/31 09:31:35;;;;;;;12.80;2.80;;;;;;;;;;7369281;19;20092;-67
2023/05/31 09:34:00;;;;;;;8.73;2.25;;;;;;;;;;7373177;19;20010;-71
2023/05/31 09:36:27;;;;;;;6.43;2.50;;;;;;;;;;7369924;19;20015;-71
2023/05/31 09:39:08;;;;;;;9.55;2.25;;;;;;;;;;7373313;19;20010;-74
2023/05/31 09:41:34;;;;;;;7.93;3.03;;;;;;;;;;7395338;19;20010;-68
2023/05/31 09:43:59;;;;;;;5.65;2.30;;;;;;;;;;7373985;19;21059;-65
2023/05/31 09:46:26;;;;;;;5.75;2.40;;;;;;;;;;7367737;19;20127;-65
2023/05/31 09:49:03;;;;;;;9.07;2.65;;;;;;;;;;7372602;19;20010;-66
2023/05/31 09:51:32;;;;;;;7.05;2.15;;;;;;;;;;7367282;19;20026;-65
2023/05/31 09:53:59;;;;;;;9.35;3.03;;;;;;;;;;7367102;19;20003;-66
2023/05/31 09:56:27;;;;;;;2.05;1.60;;;;;;;;;;7393070;19;20006;-65
2023/05/31 09:58:56;;;;;;;8.05;2.13;;;;;;;;;;7374620;19;20476;-63
2023/05/31 10:01:21;;;;;;;6.30;2.47;;;;;;;;;;7374614;19;20014;-67
2023/05/31 10:03:49;;;;;;;7.05;2.17;;;;;;;;;;7374799;19;20210;-66
2023/05/31 10:06:16;;;;;;;8.05;2.40;;;;;;;;;;7374724;19;20039;-61
2023/05/31 10:08:43;;;;;;;7.50;2.05;;;;;;;;;;7376412;19;20022;-63
2023/05/31 10:11:12;;;;;;;5.93;2.55;;;;;;;;;;7394580;19;20007;-63
2023/05/31 10:13:42;;;;;;;9.90;2.40;;;;;;;;;;7372342;19;20031;-62
2023/05/31 10:16:08;;;;;;;4.70;2.05;;;;;;;;;;7372023;19;20014;-62
2023/05/31 10:18:38;;;;;;;4.93;1.98;;;;;;;;;;7370751;19;20021;-61
2023/05/31 10:21:10;;;;;;;5.30;1.93;;;;;;;;;;7370178;19;20014;-65
2023/05/31 10:23:43;;;;;;;8.13;2.58;;;;;;;;;;7392512;19;20011;-63
2023/05/31 10:26:20;;;;;;;6.60;1.98;;;;;;;;;;7373979;19;20100;-63
2023/05/31 10:28:55;;;;;;;7.53;2.22;;;;;;;;;;7370495;19;20034;-64
2023/05/31 10:31:22;;;;;;;5.45;1.90;;;;;;;;;;7370050;19;20010;-62
2023/05/31 10:33:53;;;;;;;5.93;2.05;;;;;;;;;;7372423;19;20027;-62
2023/05/31 10:36:19;;;;;;;6.15;2.03;;;;;;;;;;7372619;19;20431;-63
2023/05/31 10:39:10;;;;;;;5.47;2.17;;;;;;;;;;7366883;19;20018;-62
2023/05/31 10:41:48;;;;;;;3.40;1.80;;;;;;;;;;7388709;19;20062;-65
2023/05/31 10:44:23;;;;;;;5.75;1.85;;;;;;;;;;7377950;19;20027;-65
2023/05/31 10:46:59;;;;;;;2.75;1.50;;;;;;;;;;7376202;19;20007;-64
2023/05/31 10:49:27;;;;;;;7.55;2.38;;;;;;;;;;7369449;19;20513;-65
2023/05/31 10:51:53;;;;;;;5.63;1.90;;;;;;;;;;7368035;19;20007;-65
2023/05/31 10:54:34;;;;;;;6.35;2.20;;;;;;;;;;7369996;19;20097;-65
2023/05/31 10:57:03;;;;;;;5.35;1.70;;;;;;;;;;7370549;19;20027;-69
2023/05/31 10:59:38;;;;;;;6.73;2.17;;;;;;;;;;7389562;19;20011;-66
2023/05/31 11:02:05;;;;;;;5.60;1.98;;;;;;;;;;7355813;19;20085;-66
2023/05/31 11:04:32;;;;;;;4.03;1.75;;;;;;;;;;7366901;19;20015;-65
2023/05/31 11:07:15;;;;;;;8.00;2.00;;;;;;;;;;7366514;19;20032;-66
2023/05/31 11:09:59;;;;;;;3.33;1.80;;;;;;;;;;7364903;19;20113;-68
2023/05/31 11:12:40;;;;;;;6.25;2.08;;;;;;;;;;7362023;19;20369;-66
2023/05/31 11:15:13;;;;;;;5.05;1.70;;;;;;;;;;7364618;19;20023;-68
2023/05/31 11:17:41;;;;;;;4.55;1.75;;;;;;;;;;7383163;19;20082;-67
2023/05/31 11:20:14;;;;;;;5.35;1.85;;;;;;;;;;7367089;19;20574;-67
2023/05/31 11:22:40;;;;;;;5.70;1.98;;;;;;;;;;7364213;19;20675;-61
2023/05/31 11:25:07;;;;;;;5.10;1.98;;;;;;;;;;7367520;19;20014;-63
2023/05/31 11:27:35;;;;;;;6.25;1.80;;;;;;;;;;7364974;19;20055;-64
2023/05/31 11:30:03;;;;;;;6.32;1.88;;;;;;;;;;7368379;19;20007;-62
2023/05/31 11:32:38;;;;;;;6.57;1.90;;;;;;;;;;7386861;19;20354;-67
2023/05/31 11:35:10;;;;;;;5.63;2.20;;;;;;;;;;7367057;19;20011;-66
2023/05/31 11:37:38;;;;;;;4.72;1.95;;;;;;;;;;7363052;19;20369;-69
2023/05/31 11:40:12;;;;;;;6.32;2.05;;;;;;;;;;7365063;19;20124;-69
2023/05/31 11:42:42;;;;;;;5.70;2.00;;;;;;;;;;7365066;19;20015;-69
2023/05/31 11:45:13;;;;;;;6.95;2.20;;;;;;;;;;7364058;19;20014;-67
2023/05/31 11:47:53;;;;;;;4.25;1.90;;;;;;;;;;7387100;19;20049;-69
2023/05/31 11:50:18;;;;;;;9.13;2.37;;;;;;;;;;7364998;19;20015;-66
2023/05/31 11:52:45;;;;;;;6.82;1.85;;;;;;;;;;7365213;19;20002;-65
2023/05/31 11:55:11;;;;;;;9.63;2.17;;;;;;;;;;7367624;19;20047;-65
2023/05/31 11:57:44;;;;;;;6.38;2.15;;;;;;;;;;7366194;19;20486;-66
2023/05/31 12:00:11;;;;;;;8.07;2.20;;;;;;;;;;7368217;19;20007;-68
2023/05/31 12:02:37;;;;;;;5.60;1.70;;;;;;;;;;7390568;19;19999;-66
2023/05/31 12:05:04;;;;;;;4.85;1.98;;;;;;;;;;7368009;19;20032;-66
2023/05/31 12:07:30;;;;;;;6.43;1.80;;;;;;;;;;7365062;19;20014;-69
2023/05/31 12:09:58;;;;;;;6.20;2.58;;;;;;;;;;7365456;19;20009;-68
2023/05/31 12:12:23;;;;;;;5.50;1.92;;;;;;;;;;7366930;19;20952;-68
2023/05/31 12:15:29;;;;;;;6.25;2.20;;;;;;;;;;7388734;19;20010;-65
2023/05/31 12:17:58;;;;;;;5.90;1.90;;;;;;;;;;7363681;19;20010;-62
2023/05/31 12:20:27;;;;;;;6.95;1.90;;;;;;;;;;7385788;19;20503;-63
2023/05/31 12:23:07;;;;;;;7.63;1.63;;;;;;;;;;7364677;19;20495;-63
2023/05/31 12:25:32;;;;;;;8.65;2.25;;;;;;;;;;7366011;19;20010;-63
2023/05/31 12:27:58;;;;;;;4.82;1.55;;;;;;;;;;7365863;19;20086;-62
2023/05/31 12:30:23;;;;;;;5.78;2.13;;;;;;;;;;7352656;19;20707;-60
2023/05/31 12:32:48;;;;;;;5.15;2.10;;;;;;;;;;7353421;19;20725;-62
2023/05/31 12:35:14;;;;;;;5.00;2.00;;;;;;;;;;7386194;19;20475;-61
2023/05/31 12:37:39;;;;;;;5.22;2.28;;;;;;;;;;7365343;19;20014;-61
2023/05/31 12:40:13;;;;;;;9.98;2.00;;;;;;;;;;7361603;19;20074;-62
2023/05/31 12:42:38;;;;;;;2.00;1.27;;;;;;;;;;7308010;19;20912;-63
2023/05/31 12:45:05;;;;;;;5.30;1.83;;;;;;;;;;7367496;19;20010;-62
2023/05/31 12:47:32;;;;;;;7.47;1.80;;;;;;;;;;7388920;19;20349;-61
2023/05/31 12:50:06;;;;;;;6.28;1.98;;;;;;;;;;7357422;19;20010;-65
2023/05/31 12:52:38;;;;;;;4.80;1.40;;;;;;;;;;7371482;19;20036;-64
2023/05/31 12:55:04;;;;;;;6.82;1.70;;;;;;;;;;7358473;19;20006;-66
2023/05/31 12:57:32;;;;;;;4.32;1.75;;;;;;;;;;7364414;19;20102;-66
2023/05/31 12:59:59;;;;;;;4.05;1.80;;;;;;;;;;7362157;19;20014;-65
2023/05/31 13:02:25;;;;;;;4.55;2.03;;;;;;;;;;7364838;19;20013;-65
2023/05/31 13:04:50;;;;;;;4.18;1.83;;;;;;;;;;7392072;19;20003;-66
2023/05/31 13:07:15;;;;;;;4.45;1.48;;;;;;;;;;7371771;19;20078;-66
2023/05/31 13:09:40;;;;;;;2.85;1.60;;;;;;;;;;7372017;19;20006;-65
2023/05/31 13:12:06;;;;;;;7.70;1.70;;;;;;;;;;7372055;19;20053;-66
2023/05/31 13:14:32;;;;;;;3.85;1.58;;;;;;;;;;7373006;19;20078;-65
2023/05/31 13:16:57;;;;;;;5.60;1.80;;;;;;;;;;7372828;19;20006;-66
2023/05/31 13:19:24;;;;;;;4.93;1.77;;;;;;;;;;7393134;19;20573;-65
2023/05/31 13:21:49;;;;;;;4.53;1.70;;;;;;;;;;7371317;19;20033;-66
2023/05/31 13:24:14;;;;;;;6.13;1.70;;;;;;;;;;7371274;19;20014;-66
2023/05/31 13:26:40;;;;;;;3.90;1.52;;;;;;;;;;7372258;19;20077;-66
2023/05/31 13:29:06;;;;;;;2.67;1.60;;;;;;;;;;7371187;19;20066;-65
2023/05/31 13:31:32;;;;;;;4.90;1.85;;;;;;;;;;7393037;19;19998;-67
2023/05/31 13:33:57;;;;;;;5.55;1.90;;;;;;;;;;7372201;19;20562;-66
2023/05/31 13:36:26;;;;;;;3.30;1.55;;;;;;;;;;7372269;19;20002;-65
2023/05/31 13:38:52;;;;;;;4.85;1.80;;;;;;;;;;7370851;19;20388;-65
2023/05/31 13:41:17;;;;;;;3.60;1.70;;;;;;;;;;7372724;19;20085;-66
2023/05/31 13:46:47;;;;;;;4.07;1.67;;;;;;;;;;7360780;19;20369;-63
2023/05/31 13:49:15;;;;;;;7.00;1.90;;;;;;;;;;7392857;19;20011;-64
2023/05/31 13:51:40;;;;;;;4.35;2.00;;;;;;;;;;7370295;19;21068;-63
2023/05/31 13:54:06;;;;;;;4.07;1.70;;;;;;;;;;7392679;19;20026;-63
2023/05/31 13:56:32;;;;;;;7.57;2.10;;;;;;;;;;7368467;19;20018;-64
2023/05/31 13:58:57;;;;;;;4.72;1.70;;;;;;;;;;7368379;19;20007;-63
2023/05/31 14:01:23;;;;;;;4.50;1.63;;;;;;;;;;7390180;19;20046;-63
2023/05/31 14:03:48;;;;;;;8.30;1.92;;;;;;;;;;7360081;19;20014;-64
2023/05/31 14:06:14;;;;;;;6.13;1.85;;;;;;;;;;7370437;19;20019;-61
2023/05/31 14:08:40;;;;;;;3.63;1.73;;;;;;;;;;7368987;19;20002;-64
2023/05/31 14:11:06;;;;;;;4.72;2.00;;;;;;;;;;7373183;19;20015;-64
2023/05/31 14:13:32;;;;;;;6.68;2.00;;;;;;;;;;7394098;19;20006;-64
2023/05/31 14:15:58;;;;;;;7.13;1.90;;;;;;;;;;7371277;19;20036;-64
2023/05/31 14:18:23;;;;;;;8.00;1.83;;;;;;;;;;7371347;19;20024;-64
2023/05/31 14:20:53;;;;;;;6.80;2.03;;;;;;;;;;7327956;19;20011;-63
2023/05/31 14:23:18;;;;;;;2.80;1.60;;;;;;;;;;7367044;19;20039;-63
2023/05/31 14:25:44;;;;;;;4.53;1.90;;;;;;;;;;7393714;19;20006;-64
2023/05/31 14:28:09;;;;;;;5.45;2.00;;;;;;;;;;7369176;19;20073;-63
2023/05/31 14:30:34;;;;;;;6.78;1.90;;;;;;;;;;7375054;19;20006;-64
2023/05/31 14:33:01;;;;;;;7.63;1.77;;;;;;;;;;7375147;19;20014;-64
2023/05/31 14:35:26;;;;;;;6.32;1.80;;;;;;;;;;7375984;19;20070;-63
2023/05/31 14:37:51;;;;;;;6.63;2.50;;;;;;;;;;7394962;19;20461;-63
2023/05/31 14:40:17;;;;;;;10.27;1.98;;;;;;;;;;7372280;19;20014;-63
2023/05/31 14:42:45;;;;;;;6.68;2.10;;;;;;;;;;7368194;19;20106;-63
2023/05/31 14:45:10;;;;;;;3.70;1.80;;;;;;;;;;7369522;19;20022;-63
2023/05/31 14:47:39;;;;;;;6.78;2.08;;;;;;;;;;7369286;19;20402;-63